createdAt,value
2019-06-07T00:00:55.742Z,90.88
2019-06-07T00:01:55.740Z,90.68
2019-06-07T00:02:55.797Z,90.48
2019-06-07T00:03:55.707Z,90.48
2019-06-07T00:04:55.710Z,90.78
2019-06-07T00:05:55.687Z,90.88
2019-06-07T00:06:55.674Z,91.09
2019-06-07T00:08:07.130Z,91.03
2019-06-07T00:08:56.674Z,90.48
2019-06-07T00:09:55.639Z,90.62
2019-06-07T00:10:55.651Z,90.68
2019-06-07T00:11:55.634Z,90.31
2019-06-07T00:12:55.614Z,90.88
2019-06-07T00:13:55.614Z,90.68
2019-06-07T00:14:55.585Z,90.48
2019-06-07T00:15:55.593Z,90.68
2019-06-07T00:16:55.567Z,90.52
2019-06-07T00:17:55.563Z,90.48
2019-06-07T00:18:55.540Z,90.58
2019-06-07T00:19:55.523Z,90.48
2019-06-07T00:20:56.725Z,90.62
2019-06-07T00:22:56.494Z,90.42
2019-06-07T00:23:55.493Z,90.72
2019-06-07T00:24:55.519Z,90.83
2019-06-07T00:25:55.456Z,90.92
2019-06-07T00:26:58.749Z,90.83
2019-06-07T00:27:55.433Z,90.31
2019-06-07T00:28:55.423Z,90.72
2019-06-07T00:29:55.443Z,91.68
2019-06-07T00:30:55.418Z,90.92
2019-06-07T00:31:55.389Z,90.92
2019-06-07T00:32:55.381Z,90.86
2019-06-07T00:33:56.308Z,90.77
2019-06-07T00:34:55.380Z,90.66
2019-06-07T00:35:55.369Z,90.77
2019-06-07T00:36:55.331Z,91.99
2019-06-07T00:37:55.322Z,91.68
2019-06-07T00:38:55.312Z,91.48
2019-06-07T00:40:13.511Z,92.09
2019-06-07T00:40:56.325Z,91.93
2019-06-07T00:41:55.303Z,91.78
2019-06-07T00:42:55.263Z,92.13
2019-06-07T00:43:55.248Z,92.13
2019-06-07T00:44:55.238Z,92.49
2019-06-07T00:45:55.229Z,92.54
2019-06-07T00:46:55.239Z,92.64
2019-06-07T00:47:55.204Z,91.93
2019-06-07T00:48:55.206Z,91.83
2019-06-07T00:49:55.182Z,91.66
2019-06-07T00:50:55.169Z,92.99
2019-06-07T00:51:55.173Z,92.48
2019-06-07T00:53:56.144Z,92.48
2019-06-07T00:54:55.168Z,93.40
2019-06-07T00:55:55.115Z,93.29
2019-06-07T00:56:55.114Z,93.40
2019-06-07T00:57:55.108Z,93.19
2019-06-07T00:59:10.762Z,94.21
2019-06-07T00:59:56.063Z,93.29
2019-06-07T01:00:55.055Z,93.70
2019-06-07T01:01:55.062Z,93.29
2019-06-07T01:02:55.046Z,94.11
2019-06-07T01:03:55.021Z,94.11
2019-06-07T01:04:55.058Z,94.11
2019-06-07T01:05:55.002Z,94.11
2019-06-07T01:06:55.025Z,93.40
2019-06-07T01:07:54.988Z,93.50
2019-06-07T01:08:54.976Z,93.50
2019-06-07T01:09:54.974Z,93.09
2019-06-07T01:10:54.940Z,93.80
2019-06-07T01:11:54.930Z,93.15
2019-06-07T01:12:54.922Z,92.64
2019-06-07T01:13:54.911Z,92.44
2019-06-07T01:14:54.921Z,92.54
2019-06-07T01:15:54.896Z,92.44
2019-06-07T01:16:59.435Z,92.64
2019-06-07T01:18:55.846Z,92.54
2019-06-07T01:19:54.838Z,92.84
2019-06-07T01:20:54.855Z,93.15
2019-06-07T01:21:54.811Z,92.94
2019-06-07T01:22:54.818Z,92.54
2019-06-07T01:24:11.028Z,92.64
2019-06-07T01:24:55.779Z,92.13
2019-06-07T01:25:54.767Z,92.84
2019-06-07T01:26:54.804Z,92.13
2019-06-07T01:27:54.752Z,92.33
2019-06-07T01:28:54.741Z,92.84
2019-06-07T01:29:54.720Z,91.93
2019-06-07T01:30:54.715Z,92.13
2019-06-07T01:31:54.709Z,92.03
2019-06-07T01:32:54.718Z,91.62
2019-06-07T01:33:54.675Z,92.03
2019-06-07T01:34:54.692Z,92.03
2019-06-07T01:35:54.653Z,92.13
2019-06-07T01:36:54.663Z,92.33
2019-06-07T01:37:54.716Z,92.54
2019-06-07T01:38:54.631Z,92.54
2019-06-07T01:39:54.624Z,92.79
2019-06-07T01:40:54.602Z,92.68
2019-06-07T01:41:54.664Z,92.79
2019-06-07T01:42:54.578Z,93.70
2019-06-07T01:43:54.577Z,93.54
2019-06-07T01:44:54.571Z,93.95
2019-06-07T01:45:54.549Z,95.07
2019-06-07T01:46:54.531Z,94.87
2019-06-07T01:47:54.533Z,94.30
2019-06-07T01:48:54.506Z,93.59
2019-06-07T01:49:54.516Z,94.71
2019-06-07T01:50:54.490Z,94.75
2019-06-07T01:51:54.480Z,95.26
2019-06-07T01:52:54.468Z,95.26
2019-06-07T01:54:41.399Z,95.87
2019-06-07T01:54:58.744Z,95.16
2019-06-07T01:55:54.441Z,95.51
2019-06-07T01:56:54.418Z,94.70
2019-06-07T01:57:54.430Z,94.79
2019-06-07T01:58:54.398Z,95.81
2019-06-07T01:59:54.380Z,96.43
2019-06-07T02:00:54.379Z,96.98
2019-06-07T02:01:54.376Z,97.08
2019-06-07T02:02:54.351Z,97.29
2019-06-07T02:03:54.358Z,97.39
2019-06-07T02:04:54.334Z,96.78
2019-06-07T02:05:54.316Z,97.80
2019-06-07T02:06:54.351Z,97.80
2019-06-07T02:07:54.306Z,97.70
2019-06-07T02:08:54.294Z,97.13
2019-06-07T02:09:54.275Z,97.44
2019-06-07T02:10:54.261Z,97.74
2019-06-07T02:11:54.263Z,97.95
2019-06-07T02:12:54.235Z,97.79
2019-06-07T02:13:54.232Z,97.69
2019-06-07T02:14:54.242Z,97.99
2019-06-07T02:15:54.209Z,97.69
2019-06-07T02:16:54.195Z,97.08
2019-06-07T02:17:54.208Z,97.38
2019-06-07T02:19:01.546Z,98.50
2019-06-07T02:19:55.160Z,99.02
2019-06-07T02:20:54.159Z,99.27
2019-06-07T02:21:54.140Z,99.78
2019-06-07T02:22:54.139Z,99.06
2019-06-07T02:23:54.113Z,99.43
2019-06-07T02:25:34.704Z,99.37
2019-06-07T02:25:55.100Z,99.16
2019-06-07T02:26:54.083Z,99.27
2019-06-07T02:28:11.138Z,98.96
2019-06-07T02:28:55.071Z,99.57
2019-06-07T02:29:54.059Z,99.73
2019-06-07T02:30:59.957Z,99.99
2019-06-07T02:31:55.030Z,99.16
2019-06-07T02:32:54.032Z,99.62
2019-06-07T02:33:54.025Z,99.88
2019-06-07T02:34:53.994Z,99.72
2019-06-07T02:35:53.997Z,99.99
2019-06-07T02:36:53.976Z,99.82
2019-06-07T02:37:53.987Z,99.99
2019-06-07T02:38:53.951Z,99.52
2019-06-07T02:39:53.945Z,99.62
2019-06-07T02:40:53.920Z,99.52
2019-06-07T02:41:53.932Z,99.99
2019-06-07T02:42:53.908Z,99.99
2019-06-07T02:43:53.904Z,99.99
2019-06-07T02:44:53.876Z,99.99
2019-06-07T02:45:53.876Z,99.82
2019-06-07T02:46:53.869Z,99.93
2019-06-07T02:47:53.922Z,99.99
2019-06-07T02:48:53.836Z,99.99
2019-06-07T02:49:53.828Z,99.99
2019-06-07T02:50:53.813Z,99.99
2019-06-07T02:51:53.809Z,99.99
2019-06-07T02:52:53.801Z,99.99
2019-06-07T02:53:53.777Z,99.99
2019-06-07T02:54:53.767Z,99.99
2019-06-07T02:56:58.465Z,99.99
2019-06-07T02:57:53.791Z,99.99
2019-06-07T02:58:53.719Z,99.99
2019-06-07T03:00:06.234Z,99.99
2019-06-07T03:01:06.643Z,99.99
2019-06-07T03:01:54.683Z,99.99
2019-06-07T03:02:53.676Z,99.99
2019-06-07T03:03:53.689Z,99.99
2019-06-07T03:04:53.651Z,99.99
2019-06-07T03:05:53.645Z,99.99
2019-06-07T03:06:53.641Z,99.99
2019-06-07T03:07:53.615Z,99.99
2019-06-07T03:08:53.617Z,99.99
2019-06-07T03:09:53.593Z,99.99
2019-06-07T03:10:53.597Z,99.99
2019-06-07T03:11:53.575Z,99.99
2019-06-07T03:12:53.560Z,99.99
2019-06-07T03:13:53.587Z,99.99
2019-06-07T03:14:53.538Z,99.99
2019-06-07T03:15:53.530Z,99.99
2019-06-07T03:16:53.529Z,99.99
2019-06-07T03:17:53.507Z,99.99
2019-06-07T03:18:53.493Z,99.99
2019-06-07T03:19:53.493Z,99.99
2019-06-07T03:21:05.039Z,99.99
2019-06-07T03:21:54.468Z,99.99
2019-06-07T03:22:53.451Z,99.99
2019-06-07T03:23:53.455Z,99.99
2019-06-07T03:24:53.438Z,99.99
2019-06-07T03:25:53.416Z,99.99
2019-06-07T03:27:54.396Z,99.99
2019-06-07T03:28:53.385Z,99.99
2019-06-07T03:29:53.383Z,99.99
2019-06-07T03:31:02.192Z,99.99
2019-06-07T03:31:54.379Z,99.99
2019-06-07T03:32:53.342Z,99.99
2019-06-07T03:33:53.325Z,99.99
2019-06-07T03:34:53.357Z,99.99
2019-06-07T03:35:53.325Z,99.99
2019-06-07T03:36:53.290Z,99.99
2019-06-07T03:37:53.299Z,99.99
2019-06-07T03:38:53.282Z,99.99
2019-06-07T03:39:53.271Z,99.99
2019-06-07T03:40:53.281Z,99.99
2019-06-07T03:42:05.747Z,99.99
2019-06-07T03:42:54.220Z,99.99
2019-06-07T03:43:53.222Z,99.99
2019-06-07T03:44:53.199Z,99.99
2019-06-07T03:45:53.192Z,99.99
2019-06-07T03:46:53.211Z,99.99
2019-06-07T03:47:53.165Z,99.99
2019-06-07T03:48:53.158Z,99.99
2019-06-07T03:49:53.156Z,99.99
2019-06-07T03:51:04.194Z,99.99
2019-06-07T03:51:54.163Z,99.99
2019-06-07T03:52:53.126Z,99.99
2019-06-07T03:53:53.110Z,99.99
2019-06-07T03:54:53.088Z,99.99
2019-06-07T03:55:53.079Z,99.99
2019-06-07T03:56:53.069Z,99.99
2019-06-07T03:58:54.039Z,99.99
2019-06-07T03:59:53.032Z,99.99
2019-06-07T04:00:53.021Z,99.99
2019-06-07T04:01:53.005Z,99.99
2019-06-07T04:02:53.023Z,99.99
2019-06-07T04:03:53.001Z,99.99
2019-06-07T04:04:52.972Z,99.99
2019-06-07T04:05:52.961Z,99.99
2019-06-07T04:06:52.950Z,99.99
2019-06-07T04:07:52.950Z,99.99
2019-06-07T04:08:52.961Z,99.99
2019-06-07T04:09:52.939Z,99.99
2019-06-07T04:10:59.959Z,99.99
2019-06-07T04:11:53.900Z,99.99
2019-06-07T04:12:52.885Z,99.99
2019-06-07T04:13:52.956Z,99.99
2019-06-07T04:14:52.862Z,99.99
2019-06-07T04:15:52.882Z,99.99
2019-06-07T04:16:52.837Z,99.99
2019-06-07T04:18:01.956Z,99.99
2019-06-07T04:18:53.842Z,99.99
2019-06-07T04:19:52.825Z,99.99
2019-06-07T04:20:52.796Z,99.99
2019-06-07T04:21:52.782Z,99.99
2019-06-07T04:22:52.779Z,99.73
2019-06-07T04:23:52.760Z,99.63
2019-06-07T04:24:52.782Z,99.43
2019-06-07T04:25:52.745Z,99.63
2019-06-07T04:26:52.731Z,99.48
2019-06-07T04:27:52.714Z,99.99
2019-06-07T04:29:31.513Z,99.99
2019-06-07T04:30:06.548Z,99.99
2019-06-07T04:30:53.686Z,99.89
2019-06-07T04:31:52.673Z,99.99
2019-06-07T04:32:52.663Z,99.43
2019-06-07T04:33:52.659Z,99.13
2019-06-07T04:34:52.636Z,99.64
2019-06-07T04:35:52.632Z,99.99
2019-06-07T04:36:59.095Z,99.90
2019-06-07T04:37:53.605Z,99.29
2019-06-07T04:38:52.628Z,99.08
2019-06-07T04:39:53.775Z,99.39
2019-06-07T04:40:52.574Z,99.04
2019-06-07T04:41:52.563Z,99.29
2019-06-07T04:42:52.554Z,98.84
2019-06-07T04:43:52.543Z,98.39
2019-06-07T04:44:52.546Z,97.17
2019-06-07T04:45:52.509Z,95.86
2019-06-07T04:46:52.504Z,93.95
2019-06-07T04:47:52.498Z,92.58
2019-06-07T04:48:52.487Z,92.64
2019-06-07T04:49:52.502Z,89.37
2019-06-07T04:50:52.522Z,88.48
2019-06-07T04:51:52.444Z,87.13
2019-06-07T04:52:52.432Z,81.26
2019-06-07T04:53:52.465Z,79.36
2019-06-07T04:54:52.415Z,75.96
2019-06-07T04:55:52.419Z,76.10
2019-06-07T04:56:52.399Z,73.51
2019-06-07T04:57:52.380Z,71.87
2019-06-07T04:58:52.365Z,72.00
2019-06-07T05:01:01.372Z,68.79
2019-06-07T05:01:53.367Z,64.31
2019-06-07T05:02:52.317Z,63.89
2019-06-07T05:03:52.308Z,63.35
2019-06-07T05:04:52.302Z,62.42
2019-06-07T05:05:52.288Z,61.16
2019-06-07T05:06:52.274Z,61.54
2019-06-07T05:07:52.282Z,60.48
2019-06-07T05:08:52.252Z,59.11
2019-06-07T05:09:52.239Z,58.86
2019-06-07T05:10:52.231Z,61.02
2019-06-07T05:11:52.219Z,62.05
2019-06-07T05:12:52.233Z,61.85
2019-06-07T05:13:52.196Z,60.69
2019-06-07T05:14:52.198Z,60.63
2019-06-07T05:15:52.182Z,59.08
2019-06-07T05:16:52.205Z,56.76
2019-06-07T05:17:52.153Z,57.13
2019-06-07T05:18:52.162Z,54.71
2019-06-07T05:19:52.127Z,54.99
2019-06-07T05:20:52.127Z,54.64
2019-06-07T05:22:03.784Z,54.22
2019-06-07T05:22:53.094Z,54.52
2019-06-07T05:24:10.619Z,55.49
2019-06-07T05:24:53.083Z,51.65
2019-06-07T05:25:52.063Z,52.02
2019-06-07T05:26:52.050Z,51.59
2019-06-07T05:27:52.045Z,50.25
2019-06-07T05:28:52.030Z,50.13
2019-06-07T05:30:13.172Z,48.36
2019-06-07T05:31:05.294Z,49.46
2019-06-07T05:31:52.993Z,49.01
2019-06-07T05:32:51.983Z,51.10
2019-06-07T05:33:51.974Z,49.43
2019-06-07T05:34:51.994Z,50.85
2019-06-07T05:35:51.952Z,50.13
2019-06-07T05:37:10.390Z,50.68
2019-06-07T05:37:52.927Z,48.14
2019-06-07T05:38:51.917Z,48.02
2019-06-07T05:39:51.920Z,48.36
2019-06-07T05:40:51.910Z,48.34
2019-06-07T05:41:51.888Z,46.72
2019-06-07T05:42:51.876Z,47.49
2019-06-07T05:44:11.537Z,49.38
2019-06-07T05:44:52.873Z,48.46
2019-06-07T05:45:51.847Z,46.08
2019-06-07T05:46:51.832Z,47.84
2019-06-07T05:47:51.816Z,46.47
2019-06-07T05:48:51.808Z,46.62
2019-06-07T05:49:51.955Z,45.73
2019-06-07T05:50:56.840Z,47.21
2019-06-07T05:51:52.772Z,47.39
2019-06-07T05:52:51.759Z,45.79
2019-06-07T05:53:51.749Z,46.17
2019-06-07T05:54:51.739Z,46.84
2019-06-07T05:55:51.744Z,45.33
2019-06-07T05:56:51.783Z,43.60
2019-06-07T05:57:51.707Z,44.27
2019-06-07T05:58:51.693Z,42.39
2019-06-07T05:59:51.683Z,44.24
2019-06-07T06:00:51.673Z,46.05
2019-06-07T06:01:59.835Z,46.20
2019-06-07T06:03:04.987Z,46.19
2019-06-07T06:03:52.638Z,44.25
2019-06-07T06:04:51.658Z,44.55
2019-06-07T06:05:55.293Z,41.63
2019-06-07T06:06:51.606Z,41.04
2019-06-07T06:07:51.615Z,43.63
2019-06-07T06:08:51.620Z,44.62
2019-06-07T06:09:51.574Z,46.00
2019-06-07T06:10:51.566Z,45.62
2019-06-07T06:12:01.664Z,43.55
2019-06-07T06:12:52.567Z,46.05
2019-06-07T06:14:06.576Z,46.17
2019-06-07T06:14:52.565Z,47.92
2019-06-07T06:16:01.217Z,47.94
2019-06-07T06:16:52.504Z,48.44
2019-06-07T06:17:53.719Z,48.74
2019-06-07T06:18:51.484Z,48.52
2019-06-07T06:19:53.411Z,48.49
2019-06-07T06:21:15.118Z,48.57
2019-06-07T06:21:52.445Z,48.79
2019-06-07T06:22:51.431Z,48.79
2019-06-07T06:23:53.742Z,48.79
2019-06-07T06:25:29.959Z,48.43
2019-06-07T06:25:56.919Z,48.55
2019-06-07T06:27:00.215Z,49.17
2019-06-07T06:28:12.121Z,50.74
2019-06-07T06:28:52.368Z,49.40
2019-06-07T06:29:52.474Z,47.02
2019-06-07T06:30:51.364Z,45.40
2019-06-07T06:32:39.456Z,45.76
2019-06-07T06:32:57.727Z,47.92
2019-06-07T06:33:52.315Z,49.62
2019-06-07T06:34:53.848Z,51.02
2019-06-07T06:35:51.290Z,51.12
2019-06-07T06:36:51.284Z,49.92
2019-06-07T06:37:53.238Z,48.48
2019-06-07T06:38:51.659Z,47.10
2019-06-07T06:39:51.272Z,48.32
2019-06-07T06:41:05.281Z,47.63
2019-06-07T06:42:01.093Z,45.85
2019-06-07T06:42:52.212Z,43.60
2019-06-07T06:43:52.629Z,41.67
2019-06-07T06:44:54.063Z,42.33
2019-06-07T06:45:51.198Z,41.71
2019-06-07T06:46:57.598Z,41.39
2019-06-07T06:47:52.156Z,39.83
2019-06-07T06:48:54.864Z,42.07
2019-06-07T06:49:54.442Z,40.80
2019-06-07T06:50:52.693Z,40.42
2019-06-07T06:51:53.600Z,41.42
2019-06-07T06:52:54.507Z,41.71
2019-06-07T06:53:52.526Z,42.72
2019-06-07T06:54:59.408Z,42.35
2019-06-07T06:55:52.076Z,43.02
2019-06-07T06:56:52.782Z,43.32
2019-06-07T06:57:51.403Z,43.13
2019-06-07T06:59:27.242Z,41.79
2019-06-07T06:59:52.822Z,41.39
2019-06-07T07:01:04.908Z,43.68
2019-06-07T07:01:52.757Z,43.23
2019-06-07T07:03:41.926Z,43.44
2019-06-07T07:04:11.365Z,43.10
2019-06-07T07:04:53.761Z,42.27
2019-06-07T07:05:54.333Z,41.83
2019-06-07T07:06:53.457Z,41.55
2019-06-07T07:07:52.904Z,41.85
2019-06-07T07:08:53.298Z,42.67
2019-06-07T07:09:54.884Z,43.82
2019-06-07T07:10:53.124Z,41.28
2019-06-07T07:12:01.038Z,41.47
2019-06-07T07:12:52.561Z,41.50
2019-06-07T07:13:56.301Z,41.26
2019-06-07T07:14:55.836Z,41.73
2019-06-07T07:15:57.274Z,40.62
2019-06-07T07:16:54.553Z,39.83
2019-06-07T07:18:03.738Z,40.70
2019-06-07T07:18:54.612Z,40.90
2019-06-07T07:19:52.997Z,40.64
2019-06-07T07:20:55.743Z,39.55
2019-06-07T07:21:53.547Z,39.39
2019-06-07T07:22:54.219Z,39.71
2019-06-07T07:24:14.739Z,39.43
2019-06-07T07:24:53.356Z,39.83
2019-06-07T07:25:57.308Z,39.90
2019-06-07T07:26:54.045Z,39.49
2019-06-07T07:27:53.816Z,41.16
2019-06-07T07:28:54.069Z,41.06
2019-06-07T07:30:10.245Z,41.79
2019-06-07T07:30:55.411Z,40.68
2019-06-07T07:31:54.402Z,41.99
2019-06-07T07:32:53.270Z,42.23
2019-06-07T07:34:55.656Z,41.91
2019-06-07T07:36:15.827Z,39.61
2019-06-07T07:36:58.236Z,41.75
2019-06-07T07:37:55.759Z,42.35
2019-06-07T07:39:00.483Z,42.01
2019-06-07T07:40:00.905Z,39.19
2019-06-07T07:41:14.641Z,38.50
2019-06-07T07:42:13.962Z,39.57
2019-06-07T07:42:54.533Z,38.17
2019-06-07T07:44:00.466Z,39.14
2019-06-07T07:44:53.736Z,39.07
2019-06-07T07:45:53.104Z,41.22
2019-06-07T07:46:53.846Z,39.65
2019-06-07T07:48:08.187Z,43.11
2019-06-07T07:48:54.197Z,43.63
2019-06-07T07:49:53.003Z,41.33
2019-06-07T07:50:56.931Z,42.15
2019-06-07T07:51:55.023Z,42.75
2019-06-07T07:52:55.994Z,42.29
2019-06-07T07:54:01.386Z,41.14
2019-06-07T07:54:52.821Z,39.92
2019-06-07T07:55:56.700Z,39.95
2019-06-07T07:56:52.290Z,40.96
2019-06-07T07:57:56.783Z,41.99
2019-06-07T07:58:57.953Z,42.19
2019-06-07T08:00:06.195Z,43.60
2019-06-07T08:01:00.325Z,45.56
2019-06-07T08:01:55.444Z,47.06
2019-06-07T08:02:53.163Z,46.84
2019-06-07T08:03:54.883Z,46.14
2019-06-07T08:05:16.555Z,46.31
2019-06-07T08:05:54.014Z,45.50
2019-06-07T08:06:53.393Z,45.50
2019-06-07T08:07:55.432Z,43.93
2019-06-07T08:08:51.916Z,45.66
2019-06-07T08:09:51.457Z,48.35
2019-06-07T08:10:54.998Z,49.55
2019-06-07T08:11:52.936Z,48.85
2019-06-07T08:13:11.396Z,48.80
2019-06-07T08:13:53.037Z,48.28
2019-06-07T08:14:51.300Z,47.28
2019-06-07T08:15:54.460Z,49.85
2019-06-07T08:16:51.825Z,48.41
2019-06-07T08:17:55.480Z,45.75
2019-06-07T08:18:54.723Z,45.23
2019-06-07T08:19:52.262Z,43.42
2019-06-07T08:21:09.751Z,43.57
2019-06-07T08:21:52.981Z,44.02
2019-06-07T08:22:50.160Z,42.03
2019-06-07T08:23:51.742Z,44.40
2019-06-07T08:24:53.170Z,43.18
2019-06-07T08:25:52.695Z,41.55
2019-06-07T08:27:13.035Z,43.66
2019-06-07T08:27:51.883Z,43.16
2019-06-07T08:28:53.219Z,41.87
2019-06-07T08:30:13.627Z,43.57
2019-06-07T08:30:57.135Z,42.09
2019-06-07T08:31:54.435Z,45.32
2019-06-07T08:32:55.052Z,43.82
2019-06-07T08:33:52.774Z,44.17
2019-06-07T08:34:54.959Z,45.61
2019-06-07T08:36:11.186Z,45.24
2019-06-07T08:36:52.253Z,44.82
2019-06-07T08:38:55.062Z,45.54
2019-06-07T08:39:52.907Z,48.38
2019-06-07T08:40:56.839Z,49.15
2019-06-07T08:41:59.261Z,48.46
2019-06-07T08:43:10.957Z,47.58
2019-06-07T08:43:53.217Z,47.83
2019-06-07T08:44:51.888Z,47.21
2019-06-07T08:45:53.186Z,44.42
2019-06-07T08:46:53.914Z,45.92
2019-06-07T08:47:57.171Z,46.01
2019-06-07T08:48:51.714Z,46.04
2019-06-07T08:49:50.644Z,43.82
2019-06-07T08:50:54.281Z,41.77
2019-06-07T08:51:54.327Z,43.38
2019-06-07T08:52:54.827Z,42.19
2019-06-07T08:54:09.605Z,41.79
2019-06-07T08:54:52.394Z,41.67
2019-06-07T08:55:54.216Z,38.88
2019-06-07T08:56:53.699Z,39.47
2019-06-07T08:57:51.925Z,37.34
2019-06-07T08:58:54.946Z,36.51
2019-06-07T08:59:51.495Z,36.99
2019-06-07T09:00:49.754Z,36.65
2019-06-07T09:01:49.738Z,39.54
2019-06-07T09:02:49.746Z,42.03
2019-06-07T09:03:49.714Z,41.42
2019-06-07T09:04:49.701Z,41.75
2019-06-07T09:05:49.699Z,42.18
2019-06-07T09:07:18.725Z,43.95
2019-06-07T09:08:13.489Z,46.25
2019-06-07T09:08:51.968Z,46.73
2019-06-07T09:09:49.662Z,43.85
2019-06-07T09:10:49.637Z,42.49
2019-06-07T09:11:49.628Z,41.93
2019-06-07T09:12:49.644Z,44.79
2019-06-07T09:13:49.623Z,44.79
2019-06-07T09:15:06.776Z,45.39
2019-06-07T09:15:50.584Z,45.83
2019-06-07T09:16:49.580Z,47.30
2019-06-07T09:18:34.890Z,47.24
2019-06-07T09:18:50.574Z,43.38
2019-06-07T09:19:49.584Z,43.40
2019-06-07T09:20:49.534Z,39.67
2019-06-07T09:21:49.524Z,40.58
2019-06-07T09:22:49.525Z,39.03
2019-06-07T09:23:49.500Z,39.13
2019-06-07T09:24:49.523Z,41.77
2019-06-07T09:26:00.845Z,37.30
2019-06-07T09:26:50.468Z,39.87
2019-06-07T09:27:49.477Z,38.21
2019-06-07T09:28:49.480Z,37.49
2019-06-07T09:29:49.459Z,38.13
2019-06-07T09:30:49.429Z,37.03
2019-06-07T09:31:53.177Z,36.82
2019-06-07T09:32:49.426Z,34.44
2019-06-07T09:33:49.403Z,36.56
2019-06-07T09:34:49.409Z,38.42
2019-06-07T09:35:49.407Z,37.62
2019-06-07T09:36:49.387Z,38.29
2019-06-07T09:38:07.878Z,37.79
2019-06-07T09:38:50.374Z,36.61
2019-06-07T09:39:49.340Z,38.15
2019-06-07T09:40:49.332Z,38.09
2019-06-07T09:41:50.450Z,39.55
2019-06-07T09:43:38.571Z,40.09
2019-06-07T09:44:21.487Z,38.59
2019-06-07T09:44:50.290Z,37.08
2019-06-07T09:45:49.282Z,37.18
2019-06-07T09:47:07.920Z,38.53
2019-06-07T09:47:50.277Z,39.31
2019-06-07T09:49:28.287Z,40.66
2019-06-07T09:49:50.245Z,41.36
2019-06-07T09:50:49.251Z,42.31
2019-06-07T09:51:49.233Z,42.96
2019-06-07T09:52:58.575Z,41.75
2019-06-07T09:53:50.204Z,38.94
2019-06-07T09:55:19.650Z,38.72
2019-06-07T09:55:50.178Z,39.89
2019-06-07T09:56:49.252Z,43.24
2019-06-07T09:57:49.158Z,41.14
2019-06-07T09:58:52.853Z,39.47
2019-06-07T09:59:49.139Z,39.36
2019-06-07T10:00:49.143Z,39.53
2019-06-07T10:01:49.579Z,40.62
2019-06-07T10:02:49.127Z,43.68
2019-06-07T10:03:49.155Z,40.50
2019-06-07T10:04:49.140Z,41.24
2019-06-07T10:05:49.077Z,43.08
2019-06-07T10:06:49.068Z,41.87
2019-06-07T10:08:00.471Z,41.46
2019-06-07T10:10:12.414Z,39.79
2019-06-07T10:10:50.036Z,40.30
2019-06-07T10:11:49.015Z,41.87
2019-06-07T10:12:49.007Z,40.98
2019-06-07T10:13:48.999Z,41.17
2019-06-07T10:14:49.014Z,40.38
2019-06-07T10:15:48.976Z,41.22
2019-06-07T10:16:49.017Z,41.50
2019-06-07T10:17:48.954Z,43.11
2019-06-07T10:18:48.977Z,44.14
2019-06-07T10:19:48.932Z,43.44
2019-06-07T10:20:48.929Z,43.66
2019-06-07T10:21:48.915Z,45.79
2019-06-07T10:22:48.914Z,45.48
2019-06-07T10:23:48.892Z,45.41
2019-06-07T10:24:48.896Z,42.23
2019-06-07T10:25:48.872Z,43.50
2019-06-07T10:26:48.865Z,41.97
2019-06-07T10:27:48.853Z,41.39
2019-06-07T10:28:48.861Z,41.39
2019-06-07T10:29:48.858Z,41.44
2019-06-07T10:30:48.820Z,43.42
2019-06-07T10:31:48.814Z,44.46
2019-06-07T10:32:52.055Z,43.24
2019-06-07T10:33:48.790Z,43.80
2019-06-07T10:34:48.800Z,46.26
2019-06-07T10:35:48.784Z,47.88
2019-06-07T10:36:48.805Z,46.70
2019-06-07T10:37:48.742Z,46.86
2019-06-07T10:38:48.777Z,47.44
2019-06-07T10:39:49.460Z,47.21
2019-06-07T10:40:48.763Z,45.44
2019-06-07T10:41:48.711Z,46.70
2019-06-07T10:42:48.693Z,47.48
2019-06-07T10:43:48.686Z,46.50
2019-06-07T10:44:48.673Z,47.58
2019-06-07T10:45:48.661Z,47.60
2019-06-07T10:46:48.682Z,48.65
2019-06-07T10:47:48.643Z,45.56
2019-06-07T10:48:48.627Z,46.68
2019-06-07T10:49:48.645Z,48.70
2019-06-07T10:50:48.610Z,50.67
2019-06-07T10:51:48.594Z,47.06
2019-06-07T10:52:48.604Z,47.14
2019-06-07T10:53:48.577Z,45.26
2019-06-07T10:54:48.562Z,48.48
2019-06-07T10:55:48.554Z,47.90
2019-06-07T10:56:48.557Z,48.65
2019-06-07T10:57:48.527Z,48.87
2019-06-07T10:58:48.536Z,50.79
2019-06-07T10:59:48.508Z,49.44
2019-06-07T11:00:48.506Z,48.72
2019-06-07T11:01:48.487Z,48.90
2019-06-07T11:02:48.482Z,47.83
2019-06-07T11:03:48.463Z,49.44
2019-06-07T11:04:48.489Z,49.12
2019-06-07T11:05:48.446Z,48.40
2019-06-07T11:06:48.424Z,48.45
2019-06-07T11:07:48.446Z,50.15
2019-06-07T11:08:48.410Z,48.82
2019-06-07T11:10:05.408Z,48.72
2019-06-07T11:10:49.382Z,48.05
2019-06-07T11:11:48.402Z,49.27
2019-06-07T11:12:48.366Z,49.29
2019-06-07T11:13:48.377Z,50.27
2019-06-07T11:14:48.368Z,48.75
2019-06-07T11:15:48.329Z,48.02
2019-06-07T11:16:48.312Z,49.40
2019-06-07T11:17:48.301Z,48.48
2019-06-07T11:18:48.290Z,48.30
2019-06-07T11:19:48.305Z,48.40
2019-06-07T11:20:48.283Z,48.88
2019-06-07T11:21:48.257Z,48.58
2019-06-07T11:22:48.244Z,48.13
2019-06-07T11:23:48.234Z,48.80
2019-06-07T11:24:48.226Z,46.64
2019-06-07T11:25:48.260Z,49.05
2019-06-07T11:26:48.229Z,50.17
2019-06-07T11:27:48.188Z,48.16
2019-06-07T11:28:48.178Z,49.45
2019-06-07T11:29:48.166Z,48.83
2019-06-07T11:30:48.161Z,48.35
2019-06-07T11:31:48.165Z,49.30
2019-06-07T11:32:48.143Z,50.49
2019-06-07T11:33:48.137Z,50.87
2019-06-07T11:34:48.114Z,50.27
2019-06-07T11:35:48.134Z,50.27
2019-06-07T11:36:51.055Z,48.85
2019-06-07T11:37:48.077Z,49.53
2019-06-07T11:38:48.081Z,48.83
2019-06-07T11:39:48.056Z,48.23
2019-06-07T11:40:48.056Z,48.43
2019-06-07T11:41:48.053Z,48.53
2019-06-07T11:42:48.027Z,48.33
2019-06-07T11:43:48.009Z,48.16
2019-06-07T11:44:56.590Z,49.85
2019-06-07T11:45:49.000Z,50.74
2019-06-07T11:46:47.995Z,48.85
2019-06-07T11:47:47.970Z,51.25
2019-06-07T11:48:47.958Z,50.25
2019-06-07T11:49:47.940Z,49.25
2019-06-07T11:50:47.939Z,48.95
2019-06-07T11:51:47.930Z,51.62
2019-06-07T11:52:47.905Z,50.30
2019-06-07T11:53:47.894Z,48.41
2019-06-07T11:54:48.239Z,48.43
2019-06-07T11:55:47.873Z,49.03
2019-06-07T11:56:47.886Z,49.83
2019-06-07T11:57:47.871Z,49.13
2019-06-07T11:58:47.838Z,49.21
2019-06-07T11:59:47.834Z,51.47
2019-06-07T12:00:47.824Z,48.08
2019-06-07T12:01:47.806Z,48.41
2019-06-07T12:02:47.801Z,49.08
2019-06-07T12:03:47.805Z,51.65
2019-06-07T12:04:47.773Z,50.47
2019-06-07T12:05:47.771Z,50.25
2019-06-07T12:06:47.775Z,49.35
2019-06-07T12:07:47.764Z,50.82
2019-06-07T12:08:47.854Z,48.63
2019-06-07T12:09:56.562Z,50.40
2019-06-07T12:10:48.702Z,49.38
2019-06-07T12:11:47.692Z,48.36
2019-06-07T12:12:47.682Z,48.50
2019-06-07T12:13:47.674Z,48.19
2019-06-07T12:14:47.687Z,48.38
2019-06-07T12:15:49.189Z,48.63
2019-06-07T12:16:47.634Z,49.53
2019-06-07T12:17:47.624Z,48.53
2019-06-07T12:18:47.610Z,48.93
2019-06-07T12:19:47.626Z,48.31
2019-06-07T12:20:47.615Z,48.13
2019-06-07T12:21:47.578Z,49.53
2019-06-07T12:22:47.579Z,49.01
2019-06-07T12:23:47.554Z,48.33
2019-06-07T12:24:47.544Z,49.23
2019-06-07T12:25:47.621Z,48.23
2019-06-07T12:26:47.531Z,50.02
2019-06-07T12:27:47.512Z,50.70
2019-06-07T12:28:47.498Z,48.49
2019-06-07T12:29:47.505Z,48.38
2019-06-07T12:30:47.515Z,48.58
2019-06-07T12:31:47.486Z,48.98
2019-06-07T12:32:47.474Z,47.27
2019-06-07T12:33:47.440Z,48.88
2019-06-07T12:34:47.443Z,47.37
2019-06-07T12:35:47.448Z,48.56
2019-06-07T12:36:47.436Z,48.07
2019-06-07T12:37:47.402Z,47.47
2019-06-07T12:38:47.398Z,48.54
2019-06-07T12:39:47.378Z,48.76
2019-06-07T12:40:57.157Z,47.99
2019-06-07T12:41:48.448Z,47.89
2019-06-07T12:42:47.354Z,48.19
2019-06-07T12:43:47.331Z,48.66
2019-06-07T12:44:47.325Z,47.27
2019-06-07T12:45:47.312Z,48.46
2019-06-07T12:46:47.314Z,47.21
2019-06-07T12:47:47.307Z,48.63
2019-06-07T12:48:47.276Z,49.13
2019-06-07T12:49:47.275Z,49.38
2019-06-07T12:50:47.255Z,48.43
2019-06-07T12:51:47.295Z,50.60
2019-06-07T12:52:47.235Z,50.38
2019-06-07T12:53:47.225Z,48.36
2019-06-07T12:54:47.208Z,49.13
2019-06-07T12:55:47.197Z,49.23
2019-06-07T12:56:47.209Z,49.53
2019-06-07T12:57:47.191Z,50.00
2019-06-07T12:58:47.167Z,49.21
2019-06-07T12:59:47.153Z,49.48
2019-06-07T13:00:47.141Z,49.38
2019-06-07T13:01:47.144Z,48.26
2019-06-07T13:02:47.144Z,48.54